createdAt,value
2023-05-16T00:02:05.304Z,20
2023-05-16T00:07:05.677Z,20
2023-05-16T00:12:06.374Z,20
2023-05-16T00:17:07.496Z,20
2023-05-16T00:22:07.899Z,20
2023-05-16T00:27:08.468Z,20
2023-05-16T00:32:09.135Z,20
2023-05-16T00:37:12.524Z,20
2023-05-16T00:42:12.774Z,20
2023-05-16T00:47:13.459Z,20
2023-05-16T00:52:14.216Z,20
2023-05-16T00:57:15.424Z,20
2023-05-16T01:02:18.688Z,20
2023-05-16T01:07:18.689Z,20
2023-05-16T01:12:14.944Z,20
2023-05-16T01:17:14.929Z,20
2023-05-16T01:22:18.284Z,20
2023-05-16T01:27:18.416Z,20
2023-05-16T01:32:18.929Z,20
2023-05-16T01:37:19.668Z,20
2023-05-16T01:42:22.870Z,19.9
2023-05-16T01:47:25.824Z,19.9
2023-05-16T01:52:28.529Z,20
2023-05-16T01:57:29.325Z,19.9
2023-05-16T02:02:25.518Z,20
2023-05-16T02:07:26.016Z,20
2023-05-16T02:12:26.592Z,20
2023-05-16T02:17:27.307Z,20
2023-05-16T02:22:30.893Z,19.9
2023-05-16T02:27:31.098Z,19.9
2023-05-16T02:32:31.568Z,19.9
2023-05-16T02:37:34.911Z,19.9
2023-05-16T02:42:37.885Z,19.9
2023-05-16T02:47:37.845Z,19.9
2023-05-16T02:52:41.078Z,19.9
2023-05-16T02:57:43.807Z,19.9
2023-05-16T03:02:43.888Z,19.8
2023-05-16T03:07:45.040Z,19.9
2023-05-16T03:12:48.444Z,19.8
2023-05-16T03:17:51.448Z,19.9
2023-05-16T03:22:53.937Z,19.9
2023-05-16T03:27:56.769Z,19.9
2023-05-16T03:32:56.962Z,19.8
2023-05-16T03:37:57.299Z,19.9
2023-05-16T03:42:57.625Z,19.9
2023-05-16T03:47:58.203Z,19.9
2023-05-16T03:52:58.710Z,19.9
2023-05-16T03:57:59.234Z,19.9
2023-05-16T04:02:59.839Z,19.8
2023-05-16T04:08:00.408Z,19.9
2023-05-16T04:13:03.673Z,19.9
2023-05-16T04:18:03.775Z,19.8
2023-05-16T04:23:04.489Z,19.8
2023-05-16T04:28:04.990Z,19.9
2023-05-16T04:33:05.391Z,19.9
2023-05-16T04:38:06.374Z,19.8
2023-05-16T04:43:06.895Z,19.8
2023-05-16T04:48:07.400Z,19.8
2023-05-16T04:53:07.876Z,19.8
2023-05-16T04:58:08.373Z,19.8
2023-05-16T05:03:09.109Z,19.8
2023-05-16T05:08:09.555Z,19.8
2023-05-16T05:13:10.121Z,19.8
2023-05-16T05:18:13.386Z,19.8
2023-05-16T05:23:13.363Z,19.7
2023-05-16T05:28:14.020Z,19.8
2023-05-16T05:33:14.655Z,19.8
2023-05-16T05:38:15.091Z,19.7
2023-05-16T05:43:18.258Z,19.7
2023-05-16T05:48:21.031Z,19.8
2023-05-16T05:53:21.010Z,19.8
2023-05-16T05:58:21.595Z,19.8
2023-05-16T06:03:22.140Z,19.8
2023-05-16T06:08:22.528Z,19.7
2023-05-16T06:13:23.034Z,19.7
2023-05-16T06:18:23.238Z,19.7
2023-05-16T06:23:23.661Z,19.7
2023-05-16T06:28:24.120Z,19.7
2023-05-16T06:33:24.444Z,19.7
2023-05-16T06:38:24.880Z,19.8
2023-05-16T06:43:25.867Z,19.8
2023-05-16T06:48:29.218Z,19.8
2023-05-16T06:53:29.413Z,19.8
2023-05-16T06:58:30.961Z,19.7
2023-05-16T07:03:31.974Z,19.8
2023-05-16T07:08:32.124Z,19.8
2023-05-16T07:13:33.738Z,19.8
2023-05-16T07:18:33.159Z,19.8
2023-05-16T07:23:34.724Z,19.7
2023-05-16T07:28:22.855Z,19.8
2023-05-16T07:33:26.031Z,19.7
2023-05-16T07:38:28.829Z,19.8
2023-05-16T07:43:30.286Z,19.8
2023-05-16T07:48:30.078Z,19.8
2023-05-16T07:53:30.578Z,19.8
2023-05-16T07:58:31.077Z,19.8
2023-05-16T08:03:31.444Z,19.7
2023-05-16T08:08:33.679Z,19.8
2023-05-16T08:13:36.736Z,19.9
2023-05-16T08:18:36.692Z,19.9
2023-05-16T08:23:37.108Z,19.9
2023-05-16T08:28:37.494Z,19.8
2023-05-16T08:33:37.963Z,19.9
2023-05-16T08:38:38.436Z,19.8
2023-05-16T08:43:38.981Z,19.9
2023-05-16T08:48:39.653Z,19.9
2023-05-16T08:53:40.179Z,19.9
2023-05-16T08:58:43.259Z,20
2023-05-16T09:03:43.425Z,19.9
2023-05-16T09:08:43.932Z,20
2023-05-16T09:13:44.551Z,19.9
2023-05-16T09:18:48.860Z,20
2023-05-16T09:23:48.950Z,20
2023-05-16T09:28:50.140Z,20
2023-05-16T09:33:53.255Z,20
2023-05-16T09:38:56.036Z,20
2023-05-16T09:43:56.035Z,20
2023-05-16T09:48:56.529Z,20
2023-05-16T09:53:57.101Z,20
2023-05-16T09:58:57.684Z,20.1
2023-05-16T10:03:58.333Z,20.1
2023-05-16T10:09:02.363Z,20
2023-05-16T10:14:01.290Z,20.1
2023-05-16T10:19:02.286Z,20.1
2023-05-16T10:24:02.824Z,20.1
2023-05-16T10:29:04.264Z,20
2023-05-16T10:34:04.536Z,20.1
2023-05-16T10:39:05.748Z,20.1
2023-05-16T10:44:06.097Z,20.1
2023-05-16T10:49:09.538Z,20.1
2023-05-16T10:54:11.512Z,20.1
2023-05-16T10:59:11.612Z,20.1
2023-05-16T11:04:12.045Z,20.1
2023-05-16T11:09:12.447Z,20.1
2023-05-16T11:14:12.965Z,20.2
2023-05-16T11:19:13.666Z,20.2
2023-05-16T11:24:14.398Z,20.2
2023-05-16T11:29:17.365Z,20.1
2023-05-16T11:34:20.294Z,20.2
2023-05-16T11:39:20.506Z,20.2
2023-05-16T11:44:20.776Z,20.2
2023-05-16T11:49:21.398Z,20.1
2023-05-16T11:54:21.959Z,20.1
2023-05-16T11:59:22.848Z,20.2
2023-05-16T12:04:23.209Z,20.2
2023-05-16T12:09:22.635Z,20.2
2023-05-16T12:14:28.013Z,20.2
2023-05-16T12:19:27.895Z,20.3
2023-05-16T12:24:30.092Z,20.3
2023-05-16T12:29:28.903Z,20.3
2023-05-16T12:34:32.081Z,20.3
2023-05-16T12:39:35.000Z,20.3
2023-05-16T12:44:35.098Z,20.2
2023-05-16T12:49:35.428Z,20.2
2023-05-16T12:54:39.053Z,20.2
2023-05-16T12:59:39.286Z,20.3
2023-05-16T13:04:39.926Z,20.3
2023-05-16T13:09:40.570Z,20.3
2023-05-16T13:14:43.125Z,20.3
2023-05-16T13:19:41.569Z,20.3
2023-05-16T13:24:45.079Z,20.4
2023-05-16T13:29:44.804Z,20.4
2023-05-16T13:34:45.289Z,20.4
2023-05-16T13:39:45.716Z,20.4
2023-05-16T13:44:46.570Z,20.3
2023-05-16T13:49:46.906Z,20.4
2023-05-16T13:54:47.309Z,20.4
2023-05-16T14:00:11.224Z,20.4
2023-05-16T14:04:51.043Z,20.4
2023-05-16T14:09:51.088Z,20.4
2023-05-16T14:14:54.310Z,20.4
2023-05-16T14:19:54.501Z,20.4
2023-05-16T14:24:41.395Z,20.5
2023-05-16T14:29:44.859Z,20.5
2023-05-16T14:34:46.810Z,20.5
2023-05-16T14:39:47.235Z,20.5
2023-05-16T14:44:47.119Z,20.5
2023-05-16T14:49:48.422Z,20.5
2023-05-16T14:54:49.785Z,20.5
2023-05-16T14:59:50.092Z,20.5
2023-05-16T15:04:50.669Z,20.6
2023-05-16T15:09:54.034Z,20.6
2023-05-16T15:14:53.859Z,20.6
2023-05-16T15:19:54.136Z,20.6
2023-05-16T15:24:54.798Z,20.6
2023-05-16T15:29:55.458Z,20.6
2023-05-16T15:34:58.562Z,20.7
2023-05-16T15:39:58.628Z,20.6
2023-05-16T15:44:59.474Z,20.7
2023-05-16T15:49:55.902Z,20.6
2023-05-16T15:54:58.630Z,20.6
2023-05-16T16:00:01.213Z,20.7
2023-05-16T16:05:04.195Z,20.7
2023-05-16T16:10:04.153Z,20.7
2023-05-16T16:15:07.255Z,20.7
2023-05-16T16:20:07.595Z,20.7
2023-05-16T16:25:08.008Z,20.8
2023-05-16T16:30:08.435Z,20.8
2023-05-16T16:35:08.925Z,20.7
2023-05-16T16:40:12.308Z,20.8
2023-05-16T16:45:12.849Z,20.7
2023-05-16T16:50:16.019Z,20.8
2023-05-16T16:55:05.443Z,20.8
2023-05-16T17:00:05.650Z,20.8
2023-05-16T17:05:05.926Z,20.6
2023-05-16T17:10:09.392Z,20.8
2023-05-16T17:15:08.994Z,20.8
2023-05-16T17:20:12.051Z,20.8
2023-05-16T17:25:11.999Z,20.8
2023-05-16T17:30:25.604Z,20.7
2023-05-16T17:35:27.283Z,20.8
2023-05-16T17:40:26.987Z,20.7
2023-05-16T17:45:27.422Z,20.6
2023-05-16T17:50:27.827Z,20.8
2023-05-16T17:55:28.482Z,20.8
2023-05-16T18:00:28.618Z,20.8
2023-05-16T18:05:32.163Z,20.8
2023-05-16T18:10:43.702Z,20.8
2023-05-16T18:15:32.131Z,20.8
2023-05-16T18:20:32.644Z,20.8
2023-05-16T18:25:33.414Z,20.8
2023-05-16T18:30:50.495Z,20.7
2023-05-16T18:35:48.833Z,20.7
2023-05-16T18:40:49.974Z,20.7
2023-05-16T18:45:50.275Z,20.7
2023-05-16T18:50:50.731Z,20.7
2023-05-16T18:55:52.521Z,20.7
2023-05-16T19:00:52.490Z,20.7
2023-05-16T19:05:55.995Z,20.7
2023-05-16T19:10:55.824Z,20.6
2023-05-16T19:15:56.253Z,20.6
2023-05-16T19:20:55.647Z,20.7
2023-05-16T19:25:56.482Z,20.6
2023-05-16T19:30:57.256Z,20.6
2023-05-16T19:35:56.579Z,20.6
2023-05-16T19:40:57.347Z,20.6
2023-05-16T19:45:58.029Z,20.6
2023-05-16T19:50:58.665Z,20.6
2023-05-16T19:56:01.614Z,20.6
2023-05-16T20:01:04.260Z,20.6
2023-05-16T20:06:04.226Z,20.6
2023-05-16T20:11:04.701Z,20.6
2023-05-16T20:16:07.812Z,20.6
2023-05-16T20:21:07.901Z,20.6
2023-05-16T20:26:08.209Z,20.5
2023-05-16T20:31:08.696Z,20.5
2023-05-16T20:36:09.223Z,20.5
2023-05-16T20:41:09.781Z,20.5
2023-05-16T20:46:10.032Z,20.6
2023-05-16T20:51:10.722Z,20.5
2023-05-16T20:56:11.410Z,20.5
2023-05-16T21:01:11.952Z,20.5
2023-05-16T21:06:15.021Z,20.6
2023-05-16T21:11:17.769Z,20.6
2023-05-16T21:16:18.345Z,20.5
2023-05-16T21:21:19.492Z,20.5
2023-05-16T21:26:22.619Z,20.5
2023-05-16T21:31:22.722Z,20.5
2023-05-16T21:36:23.981Z,20.5
2023-05-16T21:41:24.292Z,20.5
2023-05-16T21:46:24.849Z,20.6
2023-05-16T21:51:27.319Z,20.5
2023-05-16T21:56:27.399Z,20.6
2023-05-16T22:01:30.462Z,20.5
2023-05-16T22:06:30.576Z,20.5
2023-05-16T22:11:30.748Z,20.5
2023-05-16T22:16:31.287Z,20.5
2023-05-16T22:21:33.712Z,20.5
2023-05-16T22:26:34.385Z,20.5
2023-05-16T22:31:34.693Z,20.5
2023-05-16T22:36:35.120Z,20.5
2023-05-16T22:41:35.751Z,20.4
2023-05-16T22:46:35.970Z,20.5
2023-05-16T22:51:36.420Z,20.5
2023-05-16T22:56:36.788Z,20.4
2023-05-16T23:01:37.422Z,20.5
2023-05-16T23:06:40.572Z,20.5
2023-05-16T23:11:40.506Z,20.5
2023-05-16T23:16:43.775Z,20.5
2023-05-16T23:21:43.709Z,20.4
2023-05-16T23:26:45.108Z,20.5
2023-05-16T23:31:45.392Z,20.5
2023-05-16T23:36:48.841Z,20.4
2023-05-16T23:41:34.962Z,20.5
2023-05-16T23:46:38.115Z,20.4
2023-05-16T23:51:45.224Z,20.5
2023-05-16T23:56:38.819Z,20.5
